createdAt,value
2023-05-14T00:00:58.840Z,70.29
2023-05-14T00:03:34.283Z,71.06
2023-05-14T00:06:07.023Z,70.71
2023-05-14T00:08:43.149Z,70.66
2023-05-14T00:11:17.943Z,71.11
2023-05-14T00:13:53.853Z,70.73
2023-05-14T00:16:28.861Z,71.27
2023-05-14T00:19:02.832Z,70.93
2023-05-14T00:21:37.655Z,71.09
2023-05-14T00:24:16.155Z,71.43
2023-05-14T00:26:50.878Z,72.68
2023-05-14T00:35:59.576Z,72.52
2023-05-14T00:38:34.921Z,72.72
2023-05-14T00:41:13.521Z,73.43
2023-05-14T00:43:46.279Z,73.49
2023-05-14T00:46:20.018Z,74.02
2023-05-14T00:49:06.939Z,74.32
2023-05-14T00:51:41.857Z,73.79
2023-05-14T00:54:53.040Z,73.99
2023-05-14T00:57:31.217Z,74.13
2023-05-14T01:00:11.086Z,73.49
2023-05-14T01:02:45.542Z,74.31
2023-05-14T01:05:21.395Z,73.50
2023-05-14T01:08:05.836Z,74.00
2023-05-14T01:10:58.283Z,74.57
2023-05-14T01:13:41.638Z,74.58
2023-05-14T01:16:17.359Z,74.30
2023-05-14T01:18:55.793Z,74.52
2023-05-14T01:21:41.339Z,74.79
2023-05-14T01:24:16.173Z,75.07
2023-05-14T01:26:53.274Z,74.75
2023-05-14T01:30:09.663Z,74.42
2023-05-14T01:33:11.557Z,74.84
2023-05-14T01:35:45.017Z,74.92
2023-05-14T01:38:25.861Z,75.03
2023-05-14T01:41:05.185Z,75.24
2023-05-14T01:43:48.373Z,75.22
2023-05-14T01:46:25.947Z,75.68
2023-05-14T01:49:00.977Z,75.11
2023-05-14T01:51:33.596Z,74.92
2023-05-14T01:54:10.912Z,75.31
2023-05-14T01:56:43.230Z,75.11
2023-05-14T01:59:16.305Z,74.01
2023-05-14T02:01:48.446Z,73.93
2023-05-14T02:04:22.413Z,74.52
2023-05-14T02:06:57.216Z,74.24
2023-05-14T02:09:32.733Z,74.07
2023-05-14T02:12:04.810Z,74.27
2023-05-14T02:14:38.980Z,74.07
2023-05-14T02:17:13.248Z,74.74
2023-05-14T02:19:46.793Z,69.27
2023-05-14T02:22:18.896Z,70.70
2023-05-14T02:24:54.441Z,68.83
2023-05-14T02:27:26.532Z,63.58
2023-05-14T02:30:09.811Z,60.03
2023-05-14T02:32:45.363Z,58.17
2023-05-14T02:35:18.137Z,56.20
2023-05-14T02:37:50.284Z,55.71
2023-05-14T02:40:25.634Z,54.51
2023-05-14T02:42:57.655Z,54.69
2023-05-14T02:45:30.231Z,53.47
2023-05-14T02:48:06.711Z,55.26
2023-05-14T02:50:39.301Z,55.97
2023-05-14T02:53:11.414Z,56.30
2023-05-14T02:55:47.154Z,61.15
2023-05-14T02:58:20.413Z,62.53
2023-05-14T03:01:03.228Z,60.87
2023-05-14T03:03:35.798Z,60.71
2023-05-14T03:06:08.878Z,61.87
2023-05-14T03:08:40.916Z,62.57
2023-05-14T03:11:16.098Z,65.92
2023-05-14T03:13:48.074Z,64.75
2023-05-14T03:16:21.830Z,59.67
2023-05-14T03:18:54.135Z,59.52
2023-05-14T03:21:26.681Z,57.10
2023-05-14T03:23:58.569Z,55.23
2023-05-14T03:26:34.264Z,58.51
2023-05-14T03:29:07.193Z,58.56
2023-05-14T03:31:42.799Z,54.29
2023-05-14T03:34:14.808Z,52.78
2023-05-14T03:36:47.135Z,52.84
2023-05-14T03:39:22.484Z,51.67
2023-05-14T03:41:57.617Z,51.03
2023-05-14T03:44:41.075Z,49.99
2023-05-14T03:47:16.420Z,49.34
2023-05-14T03:49:48.813Z,49.18
2023-05-14T03:52:24.008Z,48.61
2023-05-14T03:54:56.283Z,48.54
2023-05-14T03:57:37.162Z,48.40
2023-05-14T04:00:21.969Z,48.38
2023-05-14T04:02:56.007Z,48.41
2023-05-14T04:05:29.197Z,48.79
2023-05-14T04:08:02.480Z,48.88
2023-05-14T04:10:36.765Z,48.34
2023-05-14T04:13:13.403Z,48.60
2023-05-14T04:15:47.123Z,48.54
2023-05-14T04:18:19.563Z,48.77
2023-05-14T04:20:51.433Z,48.32
2023-05-14T04:23:25.082Z,48.53
2023-05-14T04:25:57.135Z,48.55
2023-05-14T04:28:37.363Z,48.08
2023-05-14T04:31:09.477Z,48.10
2023-05-14T04:33:42.280Z,48.78
2023-05-14T04:36:14.390Z,48.26
2023-05-14T04:38:54.945Z,48.14
2023-05-14T04:41:27.072Z,48.23
2023-05-14T04:44:04.127Z,48.17
2023-05-14T04:46:36.215Z,48.22
2023-05-14T04:49:08.748Z,48.57
2023-05-14T04:51:40.768Z,48.22
2023-05-14T04:54:44.296Z,47.89
2023-05-14T04:57:16.353Z,47.55
2023-05-14T04:59:56.249Z,48.31
2023-05-14T05:02:28.173Z,47.68
2023-05-14T05:05:00.666Z,47.39
2023-05-14T05:07:32.709Z,47.28
2023-05-14T05:10:05.273Z,47.04
2023-05-14T05:12:37.484Z,46.18
2023-05-14T05:15:13.688Z,46.09
2023-05-14T05:17:45.894Z,45.80
2023-05-14T05:20:18.572Z,46.66
2023-05-14T05:22:50.689Z,45.80
2023-05-14T05:25:23.548Z,45.42
2023-05-14T05:27:56.480Z,44.95
2023-05-14T05:30:35.137Z,44.12
2023-05-14T05:33:07.929Z,43.62
2023-05-14T05:35:40.835Z,43.30
2023-05-14T05:38:16.026Z,41.75
2023-05-14T05:40:48.651Z,40.27
2023-05-14T05:44:09.139Z,39.36
2023-05-14T05:46:45.043Z,38.85
2023-05-14T05:49:17.153Z,38.28
2023-05-14T05:51:49.830Z,38.04
2023-05-14T05:54:24.446Z,37.56
2023-05-14T05:56:57.171Z,38.29
2023-05-14T05:59:38.429Z,38.27
2023-05-14T06:02:13.777Z,38.36
2023-05-14T06:04:46.026Z,38.89
2023-05-14T06:07:21.470Z,39.11
2023-05-14T06:09:57.273Z,39.79
2023-05-14T06:12:30.479Z,38.96
2023-05-14T06:15:02.670Z,39.11
2023-05-14T06:17:38.044Z,38.65
2023-05-14T06:20:12.468Z,37.93
2023-05-14T06:22:52.856Z,38.60
2023-05-14T06:25:32.448Z,37.42
2023-05-14T06:28:04.927Z,38.12
2023-05-14T06:30:37.142Z,38.60
2023-05-14T06:33:15.506Z,39.24
2023-05-14T06:35:47.551Z,39.93
2023-05-14T06:38:19.993Z,39.87
2023-05-14T06:40:52.234Z,40.06
2023-05-14T06:43:24.966Z,40.40
2023-05-14T06:45:57.397Z,39.97
2023-05-14T06:48:35.617Z,40.84
2023-05-14T06:51:07.874Z,40.39
2023-05-14T06:53:40.652Z,40.99
2023-05-14T06:56:13.764Z,41.53
2023-05-14T06:58:47.822Z,40.71
2023-05-14T07:01:20.804Z,43.04
2023-05-14T07:03:58.220Z,42.60
2023-05-14T07:06:31.311Z,40.69
2023-05-14T07:09:05.488Z,40.63
2023-05-14T07:11:37.849Z,40.50
2023-05-14T07:14:10.326Z,41.02
2023-05-14T07:17:04.131Z,41.14
2023-05-14T07:19:41.441Z,40.66
2023-05-14T07:22:14.551Z,40.75
2023-05-14T07:24:47.333Z,41.17
2023-05-14T07:27:19.854Z,40.70
2023-05-14T07:29:59.962Z,40.04
2023-05-14T07:32:32.155Z,40.54
2023-05-14T07:35:08.773Z,40.23
2023-05-14T07:37:41.255Z,40.62
2023-05-14T07:40:14.703Z,40.66
2023-05-14T07:42:55.775Z,40.71
2023-05-14T07:45:31.618Z,37.10
2023-05-14T07:48:03.874Z,37.37
2023-05-14T07:50:42.110Z,37.19
2023-05-14T07:53:14.318Z,37.43
2023-05-14T07:56:03.008Z,36.56
2023-05-14T07:58:38.400Z,36.79
2023-05-14T08:01:10.992Z,34.66
2023-05-14T08:03:43.224Z,35.07
2023-05-14T08:06:18.923Z,35.02
2023-05-14T08:09:15.272Z,35.58
2023-05-14T08:11:48.200Z,34.05
2023-05-14T08:14:22.234Z,33.91
2023-05-14T08:17:02.562Z,32.12
2023-05-14T08:19:36.962Z,32.94
2023-05-14T08:22:14.800Z,31.78
2023-05-14T08:24:49.304Z,30.83
2023-05-14T08:27:42.817Z,31.25
2023-05-14T08:30:18.457Z,31.65
2023-05-14T08:32:55.165Z,31.33
2023-05-14T08:35:27.655Z,30.78
2023-05-14T08:38:10.654Z,30.61
2023-05-14T08:40:58.541Z,30.39
2023-05-14T08:43:34.758Z,30.64
2023-05-14T08:46:10.535Z,30.56
2023-05-14T08:48:51.807Z,30.54
2023-05-14T08:51:25.494Z,28.98
2023-05-14T08:54:05.846Z,29.55
2023-05-14T08:56:45.688Z,29.30
2023-05-14T08:59:18.481Z,30.72
2023-05-14T09:01:58.072Z,29.28
2023-05-14T09:04:32.230Z,28.37
2023-05-14T09:07:11.859Z,28.43
2023-05-14T09:09:48.914Z,29.21
2023-05-14T09:12:21.054Z,28.18
2023-05-14T09:14:58.524Z,27.65
2023-05-14T09:17:33.530Z,26.77
2023-05-14T09:20:11.471Z,27.75
2023-05-14T09:22:43.659Z,26.48
2023-05-14T09:25:34.652Z,24.77
2023-05-14T09:28:10.993Z,24.44
2023-05-14T09:31:01.775Z,25.53
2023-05-14T09:33:34.571Z,25.66
2023-05-14T09:36:08.073Z,26.69
2023-05-14T09:38:40.823Z,24.97
2023-05-14T09:41:36.913Z,23.61
2023-05-14T09:44:11.296Z,23.56
2023-05-14T09:46:58.449Z,23.93
2023-05-14T09:49:32.434Z,25.54
2023-05-14T09:52:11.322Z,25.35
2023-05-14T09:54:44.999Z,26.74
2023-05-14T09:57:30.993Z,27.37
2023-05-14T10:03:08.598Z,27.21
2023-05-14T10:05:45.718Z,27.23
2023-05-14T10:08:28.086Z,27.00
2023-05-14T10:11:03.031Z,27.50
2023-05-14T10:13:45.828Z,27.67
2023-05-14T10:16:23.858Z,28.46
2023-05-14T10:18:57.935Z,29.27
2023-05-14T10:21:38.558Z,29.54
2023-05-14T10:24:13.550Z,30.59
2023-05-14T10:26:48.592Z,30.73
2023-05-14T10:29:53.038Z,30.59
2023-05-14T10:33:10.019Z,30.98
2023-05-14T10:36:14.810Z,31.34
2023-05-14T10:38:48.280Z,30.99
2023-05-14T10:41:31.080Z,30.85
2023-05-14T10:44:17.471Z,31.05
2023-05-14T10:47:01.325Z,31.14
2023-05-14T10:49:43.473Z,30.32
2023-05-14T10:52:19.868Z,31.23
2023-05-14T10:55:03.374Z,31.28
2023-05-14T10:57:37.398Z,31.04
2023-05-14T11:00:17.541Z,31.37
2023-05-14T11:02:52.821Z,31.33
2023-05-14T11:05:28.253Z,31.31
2023-05-14T11:08:12.052Z,31.83
2023-05-14T11:10:49.218Z,32.06
2023-05-14T11:13:44.694Z,32.02
2023-05-14T11:16:23.811Z,33.90
2023-05-14T11:19:11.090Z,34.17
2023-05-14T11:21:45.449Z,33.12
2023-05-14T11:24:18.559Z,33.55
2023-05-14T12:13:38.663Z,33.86
2023-05-14T12:16:37.621Z,33.01
2023-05-14T12:19:26.922Z,33.56
2023-05-14T12:22:05.900Z,32.99
2023-05-14T12:31:15.428Z,32.49
2023-05-14T12:34:04.961Z,31.66
2023-05-14T12:36:44.728Z,31.51
2023-05-14T12:39:40.304Z,31.92
2023-05-14T12:42:12.748Z,31.06
2023-05-14T12:44:49.389Z,31.00
2023-05-14T12:47:35.358Z,31.98
2023-05-14T12:57:31.943Z,31.13
2023-05-14T13:04:16.082Z,30.82
2023-05-14T13:06:49.048Z,30.32
2023-05-14T13:09:23.436Z,29.98
2023-05-14T13:12:09.549Z,30.21
2023-05-14T13:14:42.271Z,30.01
2023-05-14T13:17:18.538Z,30.93
2023-05-14T13:19:57.223Z,30.80
2023-05-14T13:22:29.585Z,30.33
2023-05-14T13:25:02.291Z,30.39
2023-05-14T13:27:36.136Z,31.24
2023-05-14T13:30:08.871Z,30.60
2023-05-14T13:32:42.259Z,30.70
2023-05-14T13:35:17.652Z,30.63
2023-05-14T13:37:50.655Z,30.13
2023-05-14T13:40:25.890Z,30.78
2023-05-14T13:43:00.310Z,30.69
2023-05-14T13:45:35.622Z,30.47
2023-05-14T13:51:21.294Z,31.32
2023-05-14T13:56:46.837Z,30.55
2023-05-14T13:59:19.149Z,30.39
2023-05-14T14:01:52.030Z,30.63
2023-05-14T14:07:17.588Z,31.17
2023-05-14T14:09:49.453Z,30.49
2023-05-14T14:12:22.106Z,30.81
2023-05-14T14:14:54.424Z,30.60
2023-05-14T14:17:26.917Z,30.58
2023-05-14T14:20:11.525Z,31.55
2023-05-14T14:22:51.071Z,31.74
2023-05-14T14:25:24.041Z,31.17
2023-05-14T14:27:56.690Z,30.72
2023-05-14T14:30:28.697Z,30.40
2023-05-14T14:33:01.660Z,30.60
2023-05-14T14:35:35.730Z,30.53
2023-05-14T14:38:11.155Z,30.58
2023-05-14T14:40:43.390Z,30.75
2023-05-14T14:43:16.917Z,30.62
2023-05-14T14:45:49.448Z,30.14
2023-05-14T14:48:34.628Z,29.67
2023-05-14T14:51:11.345Z,30.13
2023-05-14T14:53:46.871Z,29.81
2023-05-14T14:56:19.404Z,29.26
2023-05-14T14:58:52.149Z,29.84
2023-05-14T15:01:25.540Z,29.40
2023-05-14T15:03:58.316Z,29.05
2023-05-14T15:06:36.289Z,28.78
2023-05-14T15:09:11.796Z,28.99
2023-05-14T15:11:44.415Z,29.08
2023-05-14T15:14:17.261Z,29.00
2023-05-14T15:16:51.190Z,29.25
2023-05-14T15:19:25.452Z,29.17
2023-05-14T15:21:58.056Z,29.34
2023-05-14T15:24:36.362Z,29.23
2023-05-14T15:27:13.557Z,29.25
2023-05-14T15:29:46.508Z,29.42
2023-05-14T15:32:21.132Z,29.89
2023-05-14T15:34:53.915Z,29.52
2023-05-14T15:37:28.318Z,29.90
2023-05-14T15:40:03.656Z,30.21
2023-05-14T15:42:36.109Z,30.68
2023-05-14T15:45:09.728Z,30.08
2023-05-14T15:47:42.356Z,30.79
2023-05-14T15:50:15.782Z,30.62
2023-05-14T15:52:48.903Z,30.88
2023-05-14T15:55:27.238Z,31.07
2023-05-14T15:57:59.733Z,30.87
2023-05-14T16:00:32.334Z,31.37
2023-05-14T16:03:05.520Z,31.12
2023-05-14T16:05:38.329Z,31.17
2023-05-14T16:08:12.193Z,30.93
2023-05-14T16:10:47.796Z,31.35
2023-05-14T16:13:20.097Z,31.84
2023-05-14T16:16:04.776Z,31.80
2023-05-14T16:18:37.449Z,31.68
2023-05-14T16:21:10.223Z,32.16
2023-05-14T16:23:42.486Z,31.50
2023-05-14T16:26:17.837Z,32.27
2023-05-14T16:28:50.031Z,32.15
2023-05-14T16:31:25.860Z,32.10
2023-05-14T16:33:58.898Z,32.40
2023-05-14T16:36:31.819Z,32.83
2023-05-14T16:39:08.070Z,33.02
2023-05-14T16:41:44.295Z,32.50
2023-05-14T16:44:16.846Z,33.22
2023-05-14T16:46:51.535Z,32.86
2023-05-14T16:49:24.278Z,32.92
2023-05-14T16:51:57.199Z,32.85
2023-05-14T16:54:38.598Z,33.21
2023-05-14T16:57:16.151Z,32.96
2023-05-14T16:59:48.542Z,32.61
2023-05-14T17:02:23.629Z,33.14
2023-05-14T17:04:56.250Z,33.52
2023-05-14T17:07:29.556Z,33.35
2023-05-14T17:10:02.039Z,33.75
2023-05-14T17:12:37.647Z,33.72
2023-05-14T17:15:12.592Z,34.24
2023-05-14T17:17:53.085Z,33.88
2023-05-14T17:20:45.770Z,34.34
2023-05-14T17:23:19.762Z,34.36
2023-05-14T17:25:52.889Z,35.07
2023-05-14T17:28:30.378Z,35.26
2023-05-14T17:31:05.519Z,35.40
2023-05-14T17:33:37.696Z,35.17
2023-05-14T17:36:10.625Z,35.88
2023-05-14T17:38:43.039Z,35.85
2023-05-14T17:41:16.254Z,36.21
2023-05-14T17:53:43.913Z,36.12
2023-05-14T17:56:19.105Z,36.29
2023-05-14T17:58:52.737Z,36.42
2023-05-14T18:04:17.943Z,36.64
2023-05-14T18:06:50.610Z,36.50
2023-05-14T18:09:26.044Z,36.44
2023-05-14T18:12:01.497Z,37.14
2023-05-14T18:14:33.386Z,37.11
2023-05-14T18:17:06.495Z,37.99
2023-05-14T18:19:38.714Z,37.14
2023-05-14T18:22:12.445Z,37.16
2023-05-14T18:24:48.490Z,37.36
2023-05-14T18:27:21.474Z,37.48
2023-05-14T18:29:53.734Z,37.78
2023-05-14T18:32:27.027Z,38.08
2023-05-14T18:35:00.119Z,38.54
2023-05-14T18:37:37.073Z,38.68
2023-05-14T18:40:17.748Z,38.67
2023-05-14T18:42:51.376Z,39.04
2023-05-14T18:49:47.838Z,39.01
2023-05-14T18:52:21.756Z,39.52
2023-05-14T18:54:55.445Z,39.54
2023-05-14T18:57:33.389Z,39.45
2023-05-14T19:00:07.788Z,39.90
2023-05-14T19:02:41.762Z,40.01
2023-05-14T19:05:15.648Z,40.21
2023-05-14T19:07:56.558Z,39.90
2023-05-14T19:10:30.345Z,39.99
2023-05-14T19:13:08.171Z,40.12
2023-05-14T19:15:41.429Z,40.18
2023-05-14T19:18:15.881Z,40.20
2023-05-14T19:20:49.688Z,40.22
2023-05-14T19:23:22.965Z,40.90
2023-05-14T19:25:55.482Z,40.95
2023-05-14T19:28:31.907Z,40.35
2023-05-14T19:31:19.978Z,40.87
2023-05-14T19:33:53.858Z,41.84
2023-05-14T19:36:27.524Z,43.76
2023-05-14T19:39:00.237Z,43.96
2023-05-14T19:41:33.243Z,45.61
2023-05-14T19:44:11.342Z,45.94
2023-05-14T19:46:44.254Z,46.85
2023-05-14T19:49:17.720Z,47.59
2023-05-14T19:51:50.324Z,47.88
2023-05-14T19:54:23.643Z,48.65
2023-05-14T19:56:57.866Z,49.14
2023-05-14T20:02:29.776Z,51.42
2023-05-14T20:05:09.465Z,51.81
2023-05-14T20:07:42.595Z,52.15
2023-05-14T20:10:16.593Z,52.43
2023-05-14T20:12:49.561Z,52.95
2023-05-14T20:15:26.914Z,52.89
2023-05-14T20:18:01.881Z,53.58
2023-05-14T20:20:36.263Z,53.84
2023-05-14T20:23:14.009Z,54.58
2023-05-14T20:25:49.881Z,55.52
2023-05-14T20:28:23.181Z,55.81
2023-05-14T20:31:04.748Z,56.46
2023-05-14T20:33:40.735Z,56.91
2023-05-14T20:36:16.742Z,57.11
2023-05-14T20:38:54.278Z,57.49
2023-05-14T20:41:27.815Z,57.67
2023-05-14T20:44:00.330Z,58.01
2023-05-14T20:46:36.530Z,58.93
2023-05-14T20:49:09.768Z,60.23
2023-05-14T20:51:44.054Z,60.49
2023-05-14T20:54:18.387Z,60.60
2023-05-14T20:57:50.286Z,60.21
2023-05-14T21:00:36.014Z,60.42
2023-05-14T21:03:11.556Z,60.64
2023-05-14T21:05:44.250Z,60.94
2023-05-14T21:08:16.592Z,60.59
2023-05-14T21:10:48.940Z,60.58
2023-05-14T21:13:21.039Z,61.03
2023-05-14T21:15:53.564Z,61.47
2023-05-14T21:18:31.273Z,61.21
2023-05-14T21:21:04.084Z,62.06
2023-05-14T21:23:35.955Z,61.74
2023-05-14T21:26:08.409Z,62.04
2023-05-14T21:28:40.385Z,61.84
2023-05-14T21:31:12.844Z,60.77
2023-05-14T21:33:47.377Z,61.17
2023-05-14T21:36:20.898Z,61.32
2023-05-14T21:38:52.777Z,61.63
2023-05-14T21:41:25.017Z,62.58
2023-05-14T21:43:56.978Z,61.97
2023-05-14T21:46:29.439Z,62.23
2023-05-14T21:49:04.136Z,62.41
2023-05-14T21:51:36.439Z,62.66
2023-05-14T21:54:10.752Z,62.74
2023-05-14T21:56:43.241Z,62.88
2023-05-14T21:59:15.338Z,62.39
2023-05-14T22:02:05.481Z,63.41
2023-05-14T22:04:41.820Z,63.56
2023-05-14T22:07:14.299Z,63.61
2023-05-14T22:09:46.153Z,63.88
2023-05-14T22:12:18.597Z,64.28
2023-05-14T22:14:53.229Z,64.34
2023-05-14T22:17:25.783Z,64.21
2023-05-14T22:20:00.912Z,64.65
2023-05-14T22:22:33.205Z,65.72
2023-05-14T22:25:05.390Z,66.29
2023-05-14T22:27:37.770Z,66.13
2023-05-14T22:30:11.550Z,66.04
2023-05-14T22:32:44.199Z,67.00
2023-05-14T22:35:19.606Z,67.46
2023-05-14T22:37:52.031Z,67.90
2023-05-14T22:40:24.264Z,67.99
2023-05-14T22:42:56.528Z,69.53
2023-05-14T22:45:28.828Z,69.23
2023-05-14T22:48:02.620Z,68.62
2023-05-14T22:50:58.986Z,69.00
2023-05-14T22:53:52.966Z,69.51
2023-05-14T22:56:25.695Z,69.90
2023-05-14T22:59:00.713Z,69.37
2023-05-14T23:01:35.738Z,69.13
2023-05-14T23:04:08.592Z,70.14
2023-05-14T23:09:29.970Z,70.23
2023-05-14T23:12:02.047Z,70.65
2023-05-14T23:14:34.335Z,71.10
2023-05-14T23:17:06.253Z,71.32
2023-05-14T23:19:38.682Z,71.48
2023-05-14T23:22:13.510Z,71.51
2023-05-14T23:24:45.740Z,72.16
2023-05-14T23:27:17.595Z,72.19
2023-05-14T23:29:49.879Z,71.51
2023-05-14T23:32:21.773Z,72.13
2023-05-14T23:34:53.959Z,73.04
2023-05-14T23:37:29.864Z,73.32
2023-05-14T23:40:05.048Z,73.19
2023-05-14T23:42:37.769Z,73.76
2023-05-14T23:45:11.682Z,74.06
2023-05-14T23:47:44.575Z,74.49
2023-05-14T23:50:17.186Z,74.64
2023-05-14T23:52:54.835Z,74.16
2023-05-14T23:55:27.574Z,74.70
2023-05-14T23:57:59.610Z,74.73
